createdAt,value
2018-12-20T00:01:56.395Z,46.10
2018-12-20T00:04:25.400Z,46.67
2018-12-20T00:06:54.267Z,46.20
2018-12-20T00:09:24.039Z,47.90
2018-12-20T00:11:52.991Z,49.20
2018-12-20T00:14:21.938Z,48.93
2018-12-20T00:16:54.972Z,46.73
2018-12-20T00:19:23.859Z,42.77
2018-12-20T00:21:52.863Z,43.70
2018-12-20T00:24:22.015Z,40.57
2018-12-20T00:26:50.972Z,47.97
2018-12-20T00:29:19.890Z,46.70
2018-12-20T00:31:48.894Z,41.20
2018-12-20T00:34:17.868Z,47.03
2018-12-20T00:36:46.660Z,44.97
2018-12-20T00:39:15.521Z,50.77
2018-12-20T00:41:44.515Z,55.33
2018-12-20T00:44:13.371Z,48.77
2018-12-20T00:46:42.287Z,48.40
2018-12-20T00:49:11.169Z,48.07
2018-12-20T00:51:40.262Z,50.97
2018-12-20T00:54:09.155Z,43.80
2018-12-20T00:56:38.076Z,52.53
2018-12-20T00:59:06.923Z,49.40
2018-12-20T01:01:35.788Z,47.97
2018-12-20T01:04:04.742Z,47.90
2018-12-20T01:06:33.623Z,45.80
2018-12-20T01:09:03.072Z,47.03
2018-12-20T01:11:32.081Z,53.90
2018-12-20T01:14:01.024Z,48.43
2018-12-20T01:16:29.955Z,52.17
2018-12-20T01:18:58.876Z,49.43
2018-12-20T01:21:27.988Z,50.50
2018-12-20T01:23:56.992Z,46.30
2018-12-20T01:26:25.957Z,48.00
2018-12-20T01:28:55.095Z,52.53
2018-12-20T01:31:24.104Z,50.70
2018-12-20T01:33:53.145Z,46.77
2018-12-20T01:36:22.133Z,50.47
2018-12-20T01:38:51.016Z,53.47
2018-12-20T01:41:19.973Z,54.63
2018-12-20T01:43:48.868Z,55.13
2018-12-20T01:46:17.857Z,50.90
2018-12-20T01:48:46.745Z,54.33
2018-12-20T01:51:15.591Z,52.23
2018-12-20T01:53:44.805Z,57.10
2018-12-20T01:56:13.816Z,59.20
2018-12-20T01:58:42.722Z,60.23
2018-12-20T02:01:11.649Z,56.67
2018-12-20T02:03:40.474Z,56.40
2018-12-20T02:06:09.395Z,54.33
2018-12-20T02:08:38.322Z,58.47
2018-12-20T02:11:07.443Z,53.53
2018-12-20T02:13:36.366Z,55.83
2018-12-20T02:16:05.360Z,51.40
2018-12-20T02:18:34.325Z,47.10
2018-12-20T02:21:03.345Z,54.73
2018-12-20T02:23:32.272Z,51.93
2018-12-20T02:26:01.110Z,53.20
2018-12-20T02:28:29.981Z,57.47
2018-12-20T02:30:58.901Z,53.43
2018-12-20T02:33:29.201Z,51.83
2018-12-20T02:35:58.182Z,52.33
2018-12-20T02:38:27.127Z,54.50
2018-12-20T02:40:56.360Z,50.53
2018-12-20T02:43:25.347Z,47.27
2018-12-20T02:45:54.483Z,53.50
2018-12-20T02:48:23.431Z,54.20
2018-12-20T02:50:52.488Z,57.83
2018-12-20T02:53:21.618Z,56.57
2018-12-20T02:55:50.486Z,51.97
2018-12-20T02:58:19.634Z,56.37
2018-12-20T03:00:48.552Z,52.80
2018-12-20T03:03:17.381Z,53.80
2018-12-20T03:05:46.517Z,52.70
2018-12-20T03:08:15.405Z,59.70
2018-12-20T03:10:44.469Z,54.33
2018-12-20T03:13:13.598Z,51.50
2018-12-20T03:15:42.525Z,58.57
2018-12-20T03:18:11.556Z,60.53
2018-12-20T03:20:40.745Z,56.53
2018-12-20T03:23:09.706Z,54.17
2018-12-20T03:25:38.840Z,53.13
2018-12-20T03:28:08.024Z,58.20
2018-12-20T03:30:37.333Z,59.83
2018-12-20T03:33:10.308Z,63.10
2018-12-20T03:35:37.926Z,60.37
2018-12-20T03:38:06.864Z,59.53
2018-12-20T03:40:37.038Z,59.07
2018-12-20T03:43:06.086Z,55.90
2018-12-20T03:45:36.072Z,54.50
2018-12-20T03:48:05.021Z,57.50
2018-12-20T03:50:34.125Z,55.37
2018-12-20T03:53:03.119Z,55.57
2018-12-20T03:55:32.081Z,61.40
2018-12-20T03:58:01.046Z,55.30
2018-12-20T04:00:30.114Z,65.47
2018-12-20T04:02:59.224Z,62.77
2018-12-20T04:05:28.277Z,64.80
2018-12-20T04:07:57.499Z,58.83
2018-12-20T04:10:26.600Z,55.87
2018-12-20T04:12:55.515Z,58.00
2018-12-20T04:15:24.615Z,62.70
2018-12-20T04:17:53.737Z,62.17
2018-12-20T04:20:22.823Z,57.13
2018-12-20T04:22:51.945Z,59.60
2018-12-20T04:25:22.004Z,60.10
2018-12-20T04:27:50.945Z,58.23
2018-12-20T04:30:19.891Z,54.33
2018-12-20T04:32:48.947Z,61.50
2018-12-20T04:35:17.867Z,58.93
2018-12-20T04:37:46.721Z,59.03
2018-12-20T04:40:15.659Z,72.57
2018-12-20T04:42:44.866Z,58.43
2018-12-20T04:45:14.084Z,58.10
2018-12-20T04:47:43.053Z,61.07
2018-12-20T04:50:13.002Z,62.87
2018-12-20T04:52:41.938Z,57.97
2018-12-20T04:55:10.873Z,64.33
2018-12-20T04:57:40.086Z,53.07
2018-12-20T05:00:09.149Z,53.37
2018-12-20T05:02:38.134Z,59.87
2018-12-20T05:05:07.369Z,58.40
2018-12-20T05:07:36.477Z,64.03
2018-12-20T05:10:06.146Z,58.93
2018-12-20T05:12:35.021Z,59.47
2018-12-20T05:15:04.009Z,65.90
2018-12-20T05:17:33.081Z,72.03
2018-12-20T05:20:02.067Z,64.40
2018-12-20T05:22:31.075Z,65.37
2018-12-20T05:24:59.903Z,61.17
2018-12-20T05:27:28.980Z,64.70
2018-12-20T05:29:58.059Z,65.03
2018-12-20T05:32:27.216Z,72.53
2018-12-20T05:34:56.336Z,66.30
2018-12-20T05:37:25.235Z,68.63
2018-12-20T05:39:54.159Z,75.50
2018-12-20T05:42:23.122Z,71.60
2018-12-20T05:44:52.308Z,72.07
2018-12-20T05:47:21.544Z,67.97
2018-12-20T05:49:50.695Z,64.60
2018-12-20T05:52:19.971Z,71.43
2018-12-20T05:54:48.813Z,65.80
2018-12-20T05:57:17.755Z,64.87
2018-12-20T05:59:46.603Z,67.20
2018-12-20T06:02:15.504Z,72.37
2018-12-20T06:04:44.554Z,65.70
2018-12-20T06:07:13.474Z,79.90
2018-12-20T06:09:42.337Z,72.13
2018-12-20T06:12:11.279Z,67.27
2018-12-20T06:14:40.272Z,61.33
2018-12-20T06:17:09.312Z,63.60
2018-12-20T06:19:38.169Z,65.20
2018-12-20T06:22:07.095Z,82.83
2018-12-20T06:24:35.946Z,59.30
2018-12-20T06:27:04.895Z,57.33
2018-12-20T06:29:33.787Z,61.85
2018-12-20T06:32:02.634Z,60.30
2018-12-20T06:34:31.457Z,56.57
2018-12-20T06:37:00.351Z,60.33
2018-12-20T06:39:29.198Z,60.20
2018-12-20T06:41:58.031Z,55.43
2018-12-20T06:44:26.858Z,60.80
2018-12-20T06:46:55.739Z,58.53
2018-12-20T06:49:24.550Z,55.93
2018-12-20T06:51:53.389Z,51.97
2018-12-20T06:54:22.286Z,59.23
2018-12-20T06:56:51.168Z,59.50
2018-12-20T06:59:20.063Z,53.23
2018-12-20T07:01:49.030Z,53.33
2018-12-20T07:04:17.943Z,62.07
2018-12-20T07:06:46.956Z,52.37
2018-12-20T07:09:15.945Z,48.87
2018-12-20T07:11:44.779Z,58.73
2018-12-20T07:14:13.606Z,61.43
2018-12-20T07:16:42.471Z,59.03
2018-12-20T07:19:11.390Z,51.70
2018-12-20T07:21:40.283Z,54.07
2018-12-20T07:24:09.232Z,56.17
2018-12-20T07:26:38.172Z,51.93
2018-12-20T07:29:07.075Z,58.17
2018-12-20T07:31:36.056Z,57.50
2018-12-20T07:34:04.888Z,55.80
2018-12-20T07:36:33.803Z,58.20
2018-12-20T07:39:02.837Z,58.00
2018-12-20T07:41:31.783Z,54.93
2018-12-20T07:44:00.611Z,52.90
2018-12-20T07:46:37.551Z,49.80
2018-12-20T07:49:00.243Z,55.17
2018-12-20T07:51:29.247Z,55.00
2018-12-20T07:53:58.081Z,64.33
2018-12-20T07:56:26.983Z,60.43
2018-12-20T07:58:55.915Z,67.93
2018-12-20T08:01:24.946Z,53.73
2018-12-20T08:03:53.791Z,55.23
2018-12-20T08:06:22.734Z,54.90
2018-12-20T08:08:51.569Z,56.80
2018-12-20T08:11:20.434Z,64.60
2018-12-20T08:13:49.352Z,60.13
2018-12-20T08:16:18.179Z,55.13
2018-12-20T08:18:47.016Z,59.60
2018-12-20T08:21:15.931Z,57.30
2018-12-20T08:23:44.790Z,64.43
2018-12-20T08:26:13.686Z,57.20
2018-12-20T08:28:42.583Z,63.83
2018-12-20T08:31:11.427Z,56.30
2018-12-20T08:33:40.316Z,59.50
2018-12-20T08:36:09.366Z,53.43
2018-12-20T08:38:38.352Z,54.13
2018-12-20T08:41:09.042Z,52.23
2018-12-20T08:43:38.441Z,59.53
2018-12-20T08:46:07.288Z,61.50
2018-12-20T08:48:36.251Z,55.73
2018-12-20T08:51:05.303Z,54.00
2018-12-20T08:53:34.127Z,52.90
2018-12-20T08:56:03.005Z,53.50
2018-12-20T08:58:31.870Z,52.55
2018-12-20T09:01:00.771Z,54.93
2018-12-20T09:03:29.591Z,53.87
2018-12-20T09:05:58.579Z,52.70
2018-12-20T09:08:27.481Z,54.90
2018-12-20T09:10:56.321Z,54.93
2018-12-20T09:13:25.231Z,52.40
2018-12-20T09:15:54.010Z,55.50
2018-12-20T09:18:23.010Z,45.28
2018-12-20T09:20:51.822Z,53.30
2018-12-20T09:23:20.654Z,56.17
2018-12-20T09:25:49.521Z,57.67
2018-12-20T09:28:18.378Z,50.47
2018-12-20T09:30:47.212Z,50.63
2018-12-20T09:33:16.471Z,51.40
2018-12-20T09:35:45.418Z,52.80
2018-12-20T09:38:14.290Z,52.43
2018-12-20T09:40:43.259Z,51.93
2018-12-20T09:43:12.158Z,54.80
2018-12-20T09:45:41.017Z,46.80
2018-12-20T09:48:09.912Z,48.27
2018-12-20T09:50:38.776Z,46.93
2018-12-20T09:53:07.626Z,46.57
2018-12-20T09:55:36.496Z,51.10
2018-12-20T09:58:05.402Z,51.13
2018-12-20T10:00:34.236Z,51.20
2018-12-20T10:03:03.078Z,51.00
2018-12-20T10:05:31.971Z,45.00
2018-12-20T10:08:00.955Z,48.30
2018-12-20T10:10:29.850Z,44.83
2018-12-20T10:12:58.755Z,50.27
2018-12-20T10:15:27.594Z,45.17
2018-12-20T10:17:56.418Z,52.23
2018-12-20T10:20:25.411Z,52.40
2018-12-20T10:22:54.248Z,43.27
2018-12-20T10:25:23.155Z,44.10
2018-12-20T10:27:52.079Z,40.03
2018-12-20T10:30:20.986Z,39.00
2018-12-20T10:32:49.856Z,47.50
2018-12-20T10:35:18.755Z,51.03
2018-12-20T10:37:47.628Z,47.00
2018-12-20T10:40:16.514Z,50.97
2018-12-20T10:42:45.424Z,52.70
2018-12-20T10:45:14.454Z,44.70
2018-12-20T10:47:43.410Z,46.17
2018-12-20T10:50:13.154Z,44.50
2018-12-20T10:52:41.988Z,45.13
2018-12-20T10:55:10.906Z,45.80
2018-12-20T10:57:41.069Z,42.23
2018-12-20T11:00:10.019Z,44.00
2018-12-20T11:02:44.333Z,46.20
2018-12-20T11:05:18.443Z,41.67
2018-12-20T11:07:52.667Z,45.38
2018-12-20T11:10:25.887Z,45.03
2018-12-20T11:12:54.715Z,43.80
2018-12-20T11:15:23.558Z,40.57
2018-12-20T11:17:52.365Z,42.50
2018-12-20T11:20:21.206Z,41.07
2018-12-20T11:22:50.106Z,48.10
2018-12-20T11:25:18.987Z,46.80
2018-12-20T11:27:47.887Z,50.33
2018-12-20T11:30:16.903Z,46.67
2018-12-20T11:32:45.732Z,46.13
2018-12-20T11:35:14.625Z,51.83
2018-12-20T11:37:49.892Z,49.97
2018-12-20T11:40:19.054Z,45.90
2018-12-20T11:42:47.963Z,42.80
2018-12-20T11:45:16.818Z,46.27
2018-12-20T11:47:46.272Z,44.17
2018-12-20T11:50:15.255Z,47.47
2018-12-20T11:52:44.238Z,44.43
2018-12-20T11:55:14.140Z,50.47
2018-12-20T11:57:42.979Z,45.83
2018-12-20T12:00:12.127Z,43.87
2018-12-20T12:02:41.445Z,44.33
2018-12-20T12:05:10.366Z,45.77
2018-12-20T12:07:39.183Z,71.23
2018-12-20T12:10:08.044Z,60.43
2018-12-20T12:12:36.918Z,44.90
2018-12-20T12:15:06.715Z,42.97
2018-12-20T12:17:35.555Z,43.23
2018-12-20T12:20:05.219Z,43.63
2018-12-20T12:22:34.148Z,41.83
2018-12-20T12:25:03.027Z,42.30
2018-12-20T12:27:31.893Z,64.23
2018-12-20T12:30:00.797Z,51.87
2018-12-20T12:32:29.710Z,49.40
2018-12-20T12:34:58.591Z,54.83
2018-12-20T12:37:27.455Z,39.60
2018-12-20T12:39:56.351Z,33.53
2018-12-20T12:42:25.247Z,38.07
2018-12-20T12:44:55.246Z,38.60
2018-12-20T12:48:29.215Z,38.40
2018-12-20T12:50:58.066Z,39.47
2018-12-20T12:53:26.913Z,42.50
2018-12-20T12:55:55.769Z,38.57
2018-12-20T12:58:24.610Z,43.10
2018-12-20T13:00:53.446Z,37.70
2018-12-20T13:03:22.314Z,42.33
2018-12-20T13:05:51.130Z,39.53
2018-12-20T13:08:19.950Z,44.17
2018-12-20T13:10:48.904Z,41.60
2018-12-20T13:13:17.828Z,39.97
2018-12-20T13:15:46.801Z,44.07
2018-12-20T13:18:15.654Z,70.17
2018-12-20T13:20:44.501Z,33.57
2018-12-20T13:23:13.342Z,40.25
2018-12-20T13:25:42.331Z,35.37
2018-12-20T13:28:11.219Z,36.80
2018-12-20T13:30:40.063Z,39.10
2018-12-20T13:33:09.848Z,43.93
2018-12-20T13:35:38.695Z,43.07
2018-12-20T13:38:07.604Z,39.13
2018-12-20T13:40:36.465Z,43.37
2018-12-20T13:43:05.391Z,38.63
2018-12-20T13:45:34.367Z,40.93
2018-12-20T13:48:03.291Z,39.75
2018-12-20T13:50:32.146Z,39.17
2018-12-20T13:53:00.974Z,40.40
2018-12-20T13:55:29.918Z,42.80
2018-12-20T13:57:58.746Z,52.77
2018-12-20T14:00:27.602Z,38.63
2018-12-20T14:02:56.434Z,40.70
2018-12-20T14:05:25.258Z,41.20
2018-12-20T14:07:58.826Z,51.33
2018-12-20T14:10:25.052Z,80.63
2018-12-20T14:12:53.970Z,49.60
2018-12-20T14:15:22.896Z,49.83
2018-12-20T14:17:51.736Z,42.17
2018-12-20T14:20:20.583Z,43.93
2018-12-20T14:22:49.471Z,66.13
2018-12-20T14:25:18.313Z,40.27
2018-12-20T14:27:47.455Z,49.25
2018-12-20T14:30:16.389Z,40.43
2018-12-20T14:32:45.232Z,48.13
2018-12-20T14:35:14.144Z,40.53
2018-12-20T14:37:43.130Z,42.93
2018-12-20T14:40:12.076Z,48.37
2018-12-20T14:42:40.975Z,47.67
2018-12-20T14:45:09.975Z,44.57
2018-12-20T14:47:38.918Z,46.40
2018-12-20T14:50:09.009Z,46.23
2018-12-20T14:52:37.872Z,49.17
2018-12-20T14:55:08.315Z,55.13
2018-12-20T14:57:37.172Z,44.87
2018-12-20T15:00:08.164Z,53.80
2018-12-20T15:02:37.104Z,46.03
2018-12-20T15:05:06.647Z,50.40
2018-12-20T15:07:35.628Z,52.03
2018-12-20T15:10:06.250Z,58.10
2018-12-20T15:12:35.181Z,52.37
2018-12-20T15:15:04.137Z,50.03
2018-12-20T15:17:33.008Z,49.03
2018-12-20T15:20:01.939Z,49.33
2018-12-20T15:22:30.807Z,51.57
2018-12-20T15:24:59.687Z,52.87
2018-12-20T15:27:28.543Z,62.47
2018-12-20T15:29:57.373Z,57.77
2018-12-20T15:32:26.271Z,60.47
2018-12-20T15:34:55.241Z,66.27
2018-12-20T15:37:24.077Z,59.33
2018-12-20T15:39:52.903Z,59.00
2018-12-20T15:42:22.814Z,54.47
2018-12-20T15:44:51.643Z,64.60
2018-12-20T15:47:20.530Z,55.17
2018-12-20T15:49:50.105Z,60.03
2018-12-20T15:52:18.964Z,57.53
2018-12-20T15:54:47.956Z,54.50
2018-12-20T15:57:16.794Z,63.13
2018-12-20T15:59:45.670Z,64.27
2018-12-20T16:02:14.542Z,57.97
2018-12-20T16:04:43.434Z,64.37
2018-12-20T16:07:12.313Z,61.33
2018-12-20T16:09:42.342Z,58.10
2018-12-20T16:12:11.315Z,72.17
2018-12-20T16:14:40.739Z,57.20
2018-12-20T16:17:09.811Z,67.40
2018-12-20T16:19:38.684Z,68.13
2018-12-20T16:22:07.691Z,53.87
2018-12-20T16:24:36.559Z,58.23
2018-12-20T16:27:05.428Z,52.83
2018-12-20T16:29:34.273Z,52.27
2018-12-20T16:32:03.172Z,49.07
2018-12-20T16:34:32.123Z,48.57
2018-12-20T16:37:01.007Z,53.80
2018-12-20T16:39:29.888Z,54.37
2018-12-20T16:41:58.710Z,54.13
2018-12-20T16:44:27.550Z,62.03
2018-12-20T16:46:56.420Z,57.73
2018-12-20T16:49:25.324Z,53.33
2018-12-20T16:51:54.247Z,56.33
2018-12-20T16:54:23.380Z,56.83
2018-12-20T16:56:52.251Z,51.97
2018-12-20T16:59:21.074Z,52.43
2018-12-20T17:01:49.972Z,50.30
2018-12-20T17:04:18.863Z,49.53
2018-12-20T17:06:47.673Z,55.50
2018-12-20T17:09:16.631Z,51.00
2018-12-20T17:11:45.582Z,44.80
2018-12-20T17:14:14.488Z,52.90
2018-12-20T17:16:43.317Z,47.67
2018-12-20T17:19:12.203Z,44.97
2018-12-20T17:21:41.035Z,48.00
2018-12-20T17:24:09.923Z,48.60
2018-12-20T17:26:38.854Z,48.77
2018-12-20T17:29:07.687Z,51.60
2018-12-20T17:31:36.702Z,53.80
2018-12-20T17:34:05.612Z,66.23
2018-12-20T17:36:34.678Z,57.70
2018-12-20T17:39:05.297Z,48.93
2018-12-20T17:41:34.205Z,56.53
2018-12-20T17:44:03.786Z,52.30
2018-12-20T17:46:32.774Z,51.67
2018-12-20T17:49:01.719Z,49.00
2018-12-20T17:51:30.714Z,48.77
2018-12-20T17:53:59.634Z,51.17
2018-12-20T17:56:28.566Z,47.80
2018-12-20T17:58:57.500Z,55.23
2018-12-20T18:01:26.423Z,52.87
2018-12-20T18:03:55.264Z,59.70
2018-12-20T18:06:24.182Z,63.57
2018-12-20T18:08:53.036Z,52.67
2018-12-20T18:11:22.013Z,54.10
2018-12-20T18:13:50.943Z,56.63
2018-12-20T18:16:19.831Z,54.20
2018-12-20T18:18:48.731Z,67.17
2018-12-20T18:21:17.560Z,70.60
2018-12-20T18:23:47.509Z,77.73
2018-12-20T18:26:16.405Z,63.10
2018-12-20T18:28:47.373Z,67.23
2018-12-20T18:31:16.230Z,66.27
2018-12-20T18:33:45.187Z,62.67
2018-12-20T18:36:14.107Z,59.17
2018-12-20T18:38:43.912Z,60.93
2018-12-20T18:41:12.890Z,58.20
2018-12-20T18:43:41.871Z,59.20
2018-12-20T18:46:12.050Z,67.53
2018-12-20T18:48:41.062Z,68.37
2018-12-20T18:51:10.012Z,66.70
2018-12-20T18:53:38.882Z,60.67
2018-12-20T18:56:07.715Z,68.40
2018-12-20T18:58:36.592Z,67.10
2018-12-20T19:01:05.492Z,65.10
2018-12-20T19:03:34.390Z,66.23
2018-12-20T19:06:03.273Z,130.43
2018-12-20T19:08:32.218Z,90.63
2018-12-20T19:11:01.242Z,68.40
2018-12-20T19:13:30.209Z,65.37
2018-12-20T19:15:59.124Z,54.00
2018-12-20T19:18:27.965Z,55.97
2018-12-20T19:20:57.251Z,52.70
2018-12-20T19:23:26.147Z,56.83
2018-12-20T19:25:55.051Z,56.50
2018-12-20T19:28:23.965Z,55.30
2018-12-20T19:30:52.848Z,54.03
2018-12-20T19:33:21.774Z,70.90
2018-12-20T19:35:50.655Z,58.80
2018-12-20T19:38:20.562Z,68.83
2018-12-20T19:40:49.680Z,61.67
2018-12-20T19:43:18.806Z,52.90
2018-12-20T19:45:47.696Z,62.10
2018-12-20T19:48:16.525Z,68.53
2018-12-20T19:50:45.448Z,85.30
2018-12-20T19:53:14.392Z,85.65
2018-12-20T19:55:43.515Z,62.03
2018-12-20T19:58:12.410Z,120.10
2018-12-20T20:00:41.566Z,74.40
2018-12-20T20:03:10.521Z,61.47
2018-12-20T20:05:39.567Z,64.03
2018-12-20T20:08:08.463Z,55.23
2018-12-20T20:10:37.466Z,68.00
2018-12-20T20:13:06.390Z,50.17
2018-12-20T20:15:35.226Z,48.23
2018-12-20T20:18:04.381Z,59.10
2018-12-20T20:20:33.628Z,55.00
2018-12-20T20:23:02.594Z,58.37
2018-12-20T20:25:31.542Z,61.13
2018-12-20T20:28:00.494Z,57.03
2018-12-20T20:30:29.368Z,52.27
2018-12-20T20:32:58.309Z,59.47
2018-12-20T20:35:27.182Z,52.37
2018-12-20T20:37:56.080Z,63.10
2018-12-20T20:40:24.996Z,51.03
2018-12-20T20:42:53.886Z,50.70
2018-12-20T20:45:22.769Z,48.03
2018-12-20T20:47:51.759Z,43.97
2018-12-20T20:50:22.692Z,49.73
2018-12-20T20:52:51.465Z,48.70
2018-12-20T20:55:20.450Z,50.03
2018-12-20T20:57:49.351Z,46.93
2018-12-20T21:00:18.246Z,43.13
2018-12-20T21:02:47.249Z,45.50
2018-12-20T21:05:16.316Z,40.83
2018-12-20T21:07:45.235Z,45.00
2018-12-20T21:10:14.208Z,43.30
2018-12-20T21:12:44.003Z,39.40
2018-12-20T21:15:12.878Z,43.47
2018-12-20T21:17:41.713Z,37.67
2018-12-20T21:20:12.264Z,41.20
2018-12-20T21:22:41.229Z,43.37
2018-12-20T21:25:10.147Z,42.30
2018-12-20T21:27:38.999Z,47.83
2018-12-20T21:30:09.423Z,38.07
2018-12-20T21:32:38.323Z,38.60
2018-12-20T21:35:07.958Z,39.03
2018-12-20T21:37:36.819Z,34.60
2018-12-20T21:40:06.731Z,35.77
2018-12-20T21:42:35.716Z,35.00
2018-12-20T21:45:04.915Z,32.03
2018-12-20T21:47:33.886Z,39.00
2018-12-20T21:50:02.742Z,37.70
2018-12-20T21:52:31.607Z,39.37
2018-12-20T21:55:00.458Z,31.12
2018-12-20T21:57:29.310Z,36.63
2018-12-20T22:00:01.382Z,41.03
2018-12-20T22:02:29.122Z,73.43
2018-12-20T22:04:57.973Z,56.60
2018-12-20T22:07:26.913Z,39.63
2018-12-20T22:09:55.775Z,39.23
2018-12-20T22:12:24.619Z,46.33
2018-12-20T22:14:53.463Z,38.50
2018-12-20T22:17:22.363Z,35.43
2018-12-20T22:19:58.452Z,40.77
2018-12-20T22:22:22.030Z,39.20
2018-12-20T22:24:50.955Z,40.83
2018-12-20T22:27:19.799Z,39.90
2018-12-20T22:29:49.088Z,43.07
2018-12-20T22:32:17.926Z,44.57
2018-12-20T22:34:46.765Z,41.30
2018-12-20T22:37:15.624Z,41.97
2018-12-20T22:39:44.479Z,39.18
2018-12-20T22:42:13.388Z,41.90
2018-12-20T22:44:42.237Z,37.83
2018-12-20T22:47:11.154Z,38.37
2018-12-20T22:49:39.992Z,35.03
2018-12-20T22:52:08.860Z,38.07
2018-12-20T22:54:37.760Z,32.13
2018-12-20T22:57:06.608Z,35.57
2018-12-20T22:59:35.469Z,37.63
2018-12-20T23:02:04.711Z,36.07
2018-12-20T23:04:33.906Z,32.00
2018-12-20T23:07:02.751Z,29.93
2018-12-20T23:09:31.687Z,33.17
2018-12-20T23:12:00.519Z,26.30
2018-12-20T23:14:29.395Z,32.57
2018-12-20T23:16:58.227Z,29.27
2018-12-20T23:19:27.058Z,29.63
2018-12-20T23:21:55.967Z,23.60
2018-12-20T23:24:24.807Z,27.30
2018-12-20T23:26:53.834Z,23.27
2018-12-20T23:29:22.822Z,25.57
2018-12-20T23:31:51.711Z,21.83
2018-12-20T23:34:20.550Z,22.73
2018-12-20T23:36:49.394Z,24.23
2018-12-20T23:39:18.269Z,23.63
2018-12-20T23:41:47.212Z,27.40
2018-12-20T23:44:16.158Z,25.80
2018-12-20T23:46:45.182Z,29.00
2018-12-20T23:49:14.006Z,30.30
2018-12-20T23:51:45.405Z,26.23
2018-12-20T23:54:13.808Z,25.83
2018-12-20T23:56:42.804Z,27.13
2018-12-20T23:59:11.717Z,29.70
